Time;durP1;ratioP1;P1;durP2;ratioP2;P2;SDS_P1;SDS_P2;PMS_P1;PMS_P2;Temp;Humidity;BMP_temperature;BMP_pressure;BME280_temperature;BME280_humidity;BME280_pressure;Samples;Min_cycle;Max_cycle;Signal;HPM_P1;HPM_P2
2022/12/13 00:00:36;;;;;;;10.05;6.43;;;;;;;;;;5012692;28;20033;-85
2022/12/13 00:03:02;;;;;;;6.90;3.85;;;;;;;;;;4995620;28;20033;-86
2022/12/13 00:05:27;;;;;;;4.50;3.65;;;;;;;;;;5016969;28;20067;-87
2022/12/13 00:07:53;;;;;;;10.57;6.57;;;;;;;;;;4995514;28;20029;-86
2022/12/13 00:10:18;;;;;;;7.57;3.55;;;;;;;;;;4993736;28;20021;-85
2022/12/13 00:12:43;;;;;;;6.60;4.50;;;;;;;;;;5015039;28;20167;-87
2022/12/13 00:15:09;;;;;;;10.90;5.95;;;;;;;;;;5014472;28;20041;-86
2022/12/13 00:17:35;;;;;;;4.25;3.45;;;;;;;;;;5020135;28;20044;-86
2022/12/13 00:20:00;;;;;;;9.48;4.38;;;;;;;;;;5034279;28;20013;-86
2022/12/13 00:22:25;;;;;;;14.40;5.20;;;;;;;;;;5023023;28;20107;-85
2022/12/13 00:24:54;;;;;;;8.70;5.80;;;;;;;;;;5001997;28;20025;-89
2022/12/13 00:27:19;;;;;;;6.45;5.30;;;;;;;;;;5017729;28;20026;-88
2022/12/13 00:29:44;;;;;;;10.50;6.38;;;;;;;;;;5005219;28;20528;-87
2022/12/13 00:32:10;;;;;;;6.65;4.53;;;;;;;;;;5000293;28;20025;-88
2022/12/13 00:34:35;;;;;;;7.47;5.10;;;;;;;;;;5003014;28;20029;-86
2022/12/13 00:37:00;;;;;;;7.95;5.65;;;;;;;;;;5000130;28;20025;-88
2022/12/13 00:39:26;;;;;;;7.63;3.97;;;;;;;;;;5025947;28;20026;-88
2022/12/13 00:41:51;;;;;;;9.73;5.63;;;;;;;;;;5017923;28;20028;-88
2022/12/13 00:44:18;;;;;;;10.25;4.85;;;;;;;;;;5008248;28;20025;-88
2022/12/13 00:46:44;;;;;;;6.45;4.40;;;;;;;;;;5000461;28;20013;-88
2022/12/13 00:49:11;;;;;;;6.07;5.07;;;;;;;;;;5011334;28;20128;-87
2022/12/13 00:51:36;;;;;;;8.32;6.20;;;;;;;;;;5017818;28;20022;-87
2022/12/13 00:54:02;;;;;;;6.55;3.78;;;;;;;;;;5021815;28;20037;-86
2022/12/13 00:56:30;;;;;;;5.13;4.63;;;;;;;;;;5002922;28;20026;-86
2022/12/13 00:58:56;;;;;;;6.90;5.05;;;;;;;;;;5024132;28;20030;-88
2022/12/13 01:01:26;;;;;;;7.63;3.78;;;;;;;;;;5020427;28;20021;-87
2022/12/13 01:03:54;;;;;;;9.50;4.70;;;;;;;;;;5006687;28;20021;-87
2022/12/13 01:06:29;;;;;;;4.65;3.35;;;;;;;;;;5025304;28;20025;-87
2022/12/13 01:08:55;;;;;;;4.20;3.45;;;;;;;;;;5026455;28;20593;-87
2022/12/13 01:11:20;;;;;;;8.15;4.63;;;;;;;;;;5038320;28;20025;-87
2022/12/13 01:13:46;;;;;;;7.05;4.45;;;;;;;;;;5010003;28;20022;-88
2022/12/13 01:16:12;;;;;;;9.15;4.95;;;;;;;;;;5036614;28;20530;-88
2022/12/13 01:18:38;;;;;;;7.07;4.82;;;;;;;;;;5028321;28;20022;-87
2022/12/13 01:21:07;;;;;;;5.45;4.13;;;;;;;;;;5013150;28;20021;-88
2022/12/13 01:23:33;;;;;;;6.80;4.47;;;;;;;;;;5023076;28;20026;-88
2022/12/13 01:26:07;;;;;;;5.70;3.72;;;;;;;;;;5023844;28;20022;-87
2022/12/13 01:28:32;;;;;;;6.32;3.50;;;;;;;;;;5026320;28;20018;-87
2022/12/13 01:31:04;;;;;;;10.82;5.00;;;;;;;;;;5023075;28;20036;-87
2022/12/13 01:33:30;;;;;;;12.27;4.85;;;;;;;;;;5006798;28;20033;-87
2022/12/13 01:35:59;;;;;;;7.15;3.83;;;;;;;;;;5016578;28;20747;-87
2022/12/13 01:38:24;;;;;;;5.53;4.10;;;;;;;;;;4999431;28;20033;-87
2022/12/13 01:40:57;;;;;;;15.48;6.05;;;;;;;;;;5014378;28;20092;-87
2022/12/13 01:43:47;;;;;;;4.15;3.67;;;;;;;;;;5015917;28;20536;-87
2022/12/13 01:46:14;;;;;;;6.78;4.78;;;;;;;;;;5017121;28;20067;-87
2022/12/13 01:48:56;;;;;;;4.55;4.15;;;;;;;;;;5009884;28;20044;-87
2022/12/13 01:51:28;;;;;;;9.30;4.18;;;;;;;;;;5006149;28;20025;-87
2022/12/13 01:53:58;;;;;;;6.25;4.88;;;;;;;;;;5020400;28;20160;-88
2022/12/13 01:56:30;;;;;;;4.85;4.40;;;;;;;;;;5037748;28;20044;-87
2022/12/13 01:58:56;;;;;;;7.63;4.63;;;;;;;;;;5020624;28;20111;-87
2022/12/13 02:01:23;;;;;;;8.60;5.78;;;;;;;;;;5009429;28;21363;-87
2022/12/13 02:03:48;;;;;;;6.43;4.85;;;;;;;;;;5040260;28;20029;-88
2022/12/13 02:06:21;;;;;;;7.55;4.50;;;;;;;;;;5029652;28;20013;-88
2022/12/13 02:08:47;;;;;;;28.27;5.88;;;;;;;;;;5027899;28;20902;-88
2022/12/13 02:11:13;;;;;;;4.72;3.05;;;;;;;;;;5053544;28;20101;-88
2022/12/13 02:13:38;;;;;;;6.90;4.68;;;;;;;;;;5040484;28;20022;-88
2022/12/13 02:16:04;;;;;;;4.72;4.07;;;;;;;;;;5025416;28;20615;-87
2022/12/13 02:18:40;;;;;;;7.03;4.38;;;;;;;;;;5025283;28;20060;-87
2022/12/13 02:21:29;;;;;;;9.02;5.80;;;;;;;;;;5022093;28;20537;-87
2022/12/13 02:24:09;;;;;;;10.35;5.25;;;;;;;;;;5021307;28;20048;-89
2022/12/13 02:26:53;;;;;;;5.55;4.45;;;;;;;;;;5023521;28;20105;-89
2022/12/13 02:29:30;;;;;;;7.75;4.25;;;;;;;;;;5017601;28;20028;-88
2022/12/13 02:32:28;;;;;;;4.45;3.65;;;;;;;;;;5017807;28;20107;-87
2022/12/13 02:35:05;;;;;;;3.38;3.10;;;;;;;;;;5022696;28;20057;-88
2022/12/13 02:37:49;;;;;;;3.97;3.58;;;;;;;;;;5019809;28;20014;-88
2022/12/13 02:40:26;;;;;;;5.85;2.53;;;;;;;;;;5033900;28;20029;-87
2022/12/13 02:43:00;;;;;;;5.00;4.07;;;;;;;;;;5017882;28;20076;-87
2022/12/13 02:45:32;;;;;;;11.63;5.88;;;;;;;;;;5038161;28;20112;-87
2022/12/13 02:48:00;;;;;;;9.20;4.90;;;;;;;;;;5019511;28;20124;-87
2022/12/13 02:50:26;;;;;;;6.20;4.00;;;;;;;;;;5038013;28;20040;-88
2022/12/13 02:52:54;;;;;;;6.13;3.40;;;;;;;;;;5026639;28;20021;-88
2022/12/13 02:55:19;;;;;;;8.98;4.30;;;;;;;;;;5024839;28;20018;-88
2022/12/13 02:57:47;;;;;;;5.05;3.45;;;;;;;;;;5012547;28;20030;-87
2022/12/13 03:00:20;;;;;;;4.68;3.85;;;;;;;;;;5034155;28;20103;-88
2022/12/13 03:02:51;;;;;;;4.88;4.43;;;;;;;;;;5013193;28;20021;-88
2022/12/13 03:08:10;;;;;;;10.38;6.05;;;;;;;;;;5030704;28;20502;-87
2022/12/13 03:10:55;;;;;;;7.70;5.60;;;;;;;;;;5031786;28;20017;-88
2022/12/13 03:13:37;;;;;;;4.57;4.05;;;;;;;;;;5032880;28;20036;-87
2022/12/13 03:16:24;;;;;;;4.75;4.22;;;;;;;;;;5028380;28;20022;-86
2022/12/13 03:18:52;;;;;;;7.18;4.40;;;;;;;;;;5010081;28;20055;-87
2022/12/13 03:21:18;;;;;;;9.25;4.18;;;;;;;;;;5020157;28;20029;-87
2022/12/13 03:23:44;;;;;;;8.30;5.18;;;;;;;;;;4999755;28;20391;-87
2022/12/13 03:26:14;;;;;;;8.23;5.03;;;;;;;;;;5001347;28;20060;-87
2022/12/13 03:28:40;;;;;;;7.20;5.53;;;;;;;;;;5014748;28;20036;-87
2022/12/13 03:31:06;;;;;;;8.27;4.88;;;;;;;;;;5017355;28;20029;-87
2022/12/13 03:33:33;;;;;;;12.23;6.82;;;;;;;;;;4998549;28;20136;-87
2022/12/13 03:35:59;;;;;;;17.58;6.00;;;;;;;;;;4999059;28;20143;-87
2022/12/13 03:38:25;;;;;;;13.77;5.88;;;;;;;;;;4999532;28;20033;-87
2022/12/13 03:40:54;;;;;;;10.30;4.25;;;;;;;;;;5018537;28;20040;-88
2022/12/13 03:43:20;;;;;;;8.80;5.03;;;;;;;;;;5014476;28;20026;-88
2022/12/13 03:45:45;;;;;;;11.25;5.15;;;;;;;;;;4995265;28;20049;-87
2022/12/13 03:48:11;;;;;;;5.60;4.53;;;;;;;;;;5030315;28;20029;-87
2022/12/13 03:50:36;;;;;;;11.90;4.82;;;;;;;;;;4999603;28;20053;-88
2022/12/13 03:53:02;;;;;;;6.82;4.65;;;;;;;;;;5005112;28;20037;-88
2022/12/13 03:55:28;;;;;;;10.98;5.43;;;;;;;;;;5016931;28;20030;-87
2022/12/13 03:57:54;;;;;;;7.97;6.35;;;;;;;;;;5019337;28;20056;-87
2022/12/13 04:00:19;;;;;;;6.22;4.40;;;;;;;;;;5016952;28;20018;-86
2022/12/13 04:02:45;;;;;;;10.02;5.80;;;;;;;;;;5031367;28;20029;-86
2022/12/13 04:05:10;;;;;;;6.93;4.15;;;;;;;;;;5035711;28;20120;-86
2022/12/13 04:07:35;;;;;;;5.95;4.13;;;;;;;;;;5020527;28;20041;-88
2022/12/13 04:10:02;;;;;;;6.10;4.45;;;;;;;;;;5022070;28;20029;-88
2022/12/13 04:15:11;;;;;;;11.98;5.03;;;;;;;;;;5020523;28;20507;-86
2022/12/13 04:17:37;;;;;;;4.80;3.53;;;;;;;;;;5026367;28;20030;-87
2022/12/13 04:20:02;;;;;;;5.75;4.60;;;;;;;;;;5012453;28;20020;-86
2022/12/13 04:22:30;;;;;;;7.05;4.68;;;;;;;;;;5011161;28;20024;-87
2022/12/13 04:24:56;;;;;;;6.78;3.65;;;;;;;;;;5002709;28;20429;-88
2022/12/13 04:27:21;;;;;;;6.88;3.20;;;;;;;;;;5021556;28;20997;-86
2022/12/13 04:29:47;;;;;;;11.95;6.20;;;;;;;;;;4999155;28;20053;-87
2022/12/13 04:32:12;;;;;;;7.80;4.43;;;;;;;;;;5019091;28;20025;-87
2022/12/13 04:34:37;;;;;;;11.18;5.10;;;;;;;;;;5021973;28;20049;-87
2022/12/13 04:37:04;;;;;;;8.93;5.07;;;;;;;;;;5003321;28;20044;-87
2022/12/13 04:39:29;;;;;;;6.63;4.40;;;;;;;;;;5036045;28;20026;-87
2022/12/13 04:41:54;;;;;;;13.13;6.85;;;;;;;;;;5020722;28;20052;-87
2022/12/13 04:44:20;;;;;;;5.28;4.15;;;;;;;;;;5017186;28;20025;-86
2022/12/13 04:46:47;;;;;;;4.78;3.58;;;;;;;;;;5020395;28;20053;-87
2022/12/13 04:49:13;;;;;;;8.48;5.30;;;;;;;;;;5000445;28;20108;-86
2022/12/13 04:51:50;;;;;;;5.65;3.42;;;;;;;;;;5018151;28;20161;-87
2022/12/13 04:56:48;;;;;;;7.15;3.95;;;;;;;;;;5029597;28;20054;-79
2022/12/13 04:59:14;;;;;;;9.82;4.95;;;;;;;;;;5026565;28;20033;-81
2022/12/13 05:01:39;;;;;;;6.75;4.43;;;;;;;;;;5019053;28;20032;-81
2022/12/13 05:04:05;;;;;;;8.50;5.72;;;;;;;;;;5023250;28;20037;-81
2022/12/13 05:06:30;;;;;;;6.22;4.47;;;;;;;;;;5018896;28;20957;-81
2022/12/13 05:08:55;;;;;;;3.63;3.22;;;;;;;;;;5024208;28;20059;-76
2022/12/13 05:11:21;;;;;;;7.53;4.18;;;;;;;;;;5027937;28;20033;-81
2022/12/13 05:13:46;;;;;;;7.88;4.10;;;;;;;;;;5020141;28;20056;-82
2022/12/13 05:16:11;;;;;;;8.35;4.85;;;;;;;;;;5013952;28;20097;-80
2022/12/13 05:18:37;;;;;;;6.38;4.30;;;;;;;;;;5012612;28;20057;-80
2022/12/13 05:21:08;;;;;;;8.20;3.95;;;;;;;;;;5014324;28;20484;-80
2022/12/13 05:23:34;;;;;;;6.47;5.38;;;;;;;;;;5018468;28;20032;-80
2022/12/13 05:25:59;;;;;;;5.20;3.80;;;;;;;;;;5013041;28;20038;-84
2022/12/13 05:28:27;;;;;;;8.23;4.60;;;;;;;;;;5029546;28;20902;-80
2022/12/13 05:30:54;;;;;;;9.40;6.03;;;;;;;;;;5012711;28;20043;-84
2022/12/13 05:33:21;;;;;;;5.03;4.03;;;;;;;;;;5009051;28;21110;-83
2022/12/13 05:35:46;;;;;;;7.20;3.97;;;;;;;;;;5009873;28;20044;-79
2022/12/13 05:38:12;;;;;;;9.63;4.22;;;;;;;;;;5001761;28;20041;-84
2022/12/13 05:40:37;;;;;;;4.53;3.83;;;;;;;;;;5003698;28;20029;-82
2022/12/13 05:43:03;;;;;;;11.98;5.22;;;;;;;;;;5002138;28;20559;-82
2022/12/13 05:45:30;;;;;;;3.28;3.03;;;;;;;;;;5012905;28;20030;-82
2022/12/13 05:47:56;;;;;;;5.95;4.45;;;;;;;;;;4991732;28;20038;-78
2022/12/13 05:50:21;;;;;;;10.52;6.15;;;;;;;;;;5005310;28;20032;-81
2022/12/13 05:52:46;;;;;;;4.30;3.75;;;;;;;;;;5007567;28;20041;-82
2022/12/13 05:55:12;;;;;;;6.32;4.30;;;;;;;;;;5007853;28;20037;-81
2022/12/13 05:57:37;;;;;;;8.98;5.35;;;;;;;;;;5012888;28;20119;-79
2022/12/13 06:00:05;;;;;;;5.80;3.83;;;;;;;;;;5006320;28;20037;-79
2022/12/13 06:02:30;;;;;;;5.55;4.28;;;;;;;;;;5020964;28;20026;-79
2022/12/13 06:04:56;;;;;;;4.20;3.50;;;;;;;;;;5035727;28;20016;-79
2022/12/13 06:07:21;;;;;;;10.95;4.85;;;;;;;;;;5029775;28;20049;-81
2022/12/13 06:09:47;;;;;;;6.55;4.40;;;;;;;;;;5016180;28;20037;-79
2022/12/13 06:12:12;;;;;;;7.05;5.00;;;;;;;;;;5015566;28;20116;-81
2022/12/13 06:14:37;;;;;;;9.82;4.50;;;;;;;;;;5020176;28;20793;-81
2022/12/13 06:17:03;;;;;;;4.88;4.13;;;;;;;;;;5020003;28;20045;-83
2022/12/13 06:19:28;;;;;;;5.95;3.72;;;;;;;;;;5020309;28;20105;-82
2022/12/13 06:21:54;;;;;;;7.82;4.63;;;;;;;;;;5024520;28;20041;-79
2022/12/13 06:24:21;;;;;;;7.40;3.47;;;;;;;;;;5030992;28;20025;-79
2022/12/13 06:26:47;;;;;;;8.05;5.97;;;;;;;;;;5020972;28;20036;-80
2022/12/13 06:29:19;;;;;;;11.52;4.57;;;;;;;;;;5020716;28;20029;-80
2022/12/13 06:31:44;;;;;;;7.55;5.32;;;;;;;;;;5019925;28;20037;-82
2022/12/13 06:34:09;;;;;;;8.13;5.32;;;;;;;;;;5021437;28;20112;-79
2022/12/13 06:36:35;;;;;;;6.40;4.60;;;;;;;;;;5023070;28;20033;-81
2022/12/13 06:39:05;;;;;;;6.15;4.75;;;;;;;;;;5017093;28;20034;-76
2022/12/13 06:41:31;;;;;;;6.30;4.60;;;;;;;;;;5016135;28;20030;-80
2022/12/13 06:43:57;;;;;;;6.03;3.90;;;;;;;;;;5018738;28;20147;-79
2022/12/13 06:46:22;;;;;;;9.48;4.63;;;;;;;;;;5036707;28;20033;-82
2022/12/13 06:48:48;;;;;;;5.97;3.65;;;;;;;;;;5034628;28;20048;-79
2022/12/13 06:51:14;;;;;;;4.70;4.10;;;;;;;;;;5027312;28;20031;-83
2022/12/13 06:53:40;;;;;;;6.72;3.08;;;;;;;;;;5028879;28;20051;-79
2022/12/13 06:56:08;;;;;;;5.22;4.32;;;;;;;;;;5023763;28;20396;-79
2022/12/13 06:58:33;;;;;;;6.38;4.03;;;;;;;;;;5013988;28;20040;-83
2022/12/13 07:01:04;;;;;;;7.85;5.32;;;;;;;;;;5015317;28;20037;-83
2022/12/13 07:03:30;;;;;;;12.48;5.03;;;;;;;;;;5018658;28;20113;-82
2022/12/13 07:05:56;;;;;;;3.17;2.88;;;;;;;;;;5019505;28;20026;-82
2022/12/13 07:08:21;;;;;;;8.43;4.78;;;;;;;;;;5021290;28;20079;-82
2022/12/13 07:10:47;;;;;;;6.43;4.18;;;;;;;;;;5022139;28;20035;-83
2022/12/13 07:13:12;;;;;;;5.00;3.58;;;;;;;;;;5024887;28;21053;-84
2022/12/13 07:15:38;;;;;;;3.35;3.08;;;;;;;;;;5025242;28;20079;-79
2022/12/13 07:18:03;;;;;;;3.90;3.55;;;;;;;;;;5022207;28;20040;-79
2022/12/13 07:20:29;;;;;;;4.43;4.00;;;;;;;;;;5024245;28;20055;-80
2022/12/13 07:22:55;;;;;;;9.32;2.50;;;;;;;;;;5023656;28;20047;-80
2022/12/13 07:25:21;;;;;;;12.20;4.18;;;;;;;;;;5020368;28;20149;-82
2022/12/13 07:27:47;;;;;;;5.40;3.15;;;;;;;;;;5028781;28;20045;-76
2022/12/13 07:30:14;;;;;;;5.13;4.00;;;;;;;;;;5031457;28;20025;-79
2022/12/13 07:32:39;;;;;;;7.60;5.80;;;;;;;;;;5021706;28;20403;-79
2022/12/13 07:35:05;;;;;;;3.75;3.40;;;;;;;;;;5021641;28;20032;-80
2022/12/13 07:37:30;;;;;;;8.23;4.55;;;;;;;;;;5050181;28;20029;-79
2022/12/13 07:39:55;;;;;;;6.68;4.00;;;;;;;;;;5055788;28;20029;-80
2022/12/13 07:42:21;;;;;;;8.65;4.93;;;;;;;;;;5055436;28;20136;-80
2022/12/13 07:44:46;;;;;;;9.85;4.35;;;;;;;;;;5055801;28;20029;-79
2022/12/13 07:47:11;;;;;;;7.70;4.75;;;;;;;;;;5035627;28;20029;-80
2022/12/13 07:49:39;;;;;;;4.43;3.80;;;;;;;;;;5035886;28;20418;-80
2022/12/13 07:52:08;;;;;;;5.10;3.60;;;;;;;;;;5034289;28;20018;-80
2022/12/13 07:54:34;;;;;;;7.82;3.95;;;;;;;;;;5035227;28;20067;-79
2022/12/13 07:56:59;;;;;;;13.43;4.50;;;;;;;;;;5037266;28;20025;-82
2022/12/13 07:59:24;;;;;;;8.13;5.03;;;;;;;;;;5037428;28;20492;-81
2022/12/13 08:01:50;;;;;;;4.47;4.07;;;;;;;;;;5036224;28;20052;-83
2022/12/13 08:04:15;;;;;;;5.00;4.50;;;;;;;;;;5029536;28;20047;-85
2022/12/13 08:06:40;;;;;;;7.50;5.80;;;;;;;;;;5030681;28;20025;-81
2022/12/13 08:09:06;;;;;;;6.07;4.10;;;;;;;;;;5034645;28;20029;-81
2022/12/13 08:11:31;;;;;;;5.57;4.45;;;;;;;;;;5032664;28;20029;-81
2022/12/13 08:13:56;;;;;;;5.10;4.00;;;;;;;;;;5033491;28;20029;-83
2022/12/13 08:16:22;;;;;;;8.70;5.40;;;;;;;;;;5035964;28;20060;-82
2022/12/13 08:18:47;;;;;;;7.10;4.70;;;;;;;;;;5034828;28;20036;-83
2022/12/13 08:21:13;;;;;;;4.05;3.13;;;;;;;;;;5024418;28;20105;-83
2022/12/13 08:23:38;;;;;;;6.35;4.82;;;;;;;;;;5039691;28;20036;-81
2022/12/13 08:26:05;;;;;;;10.07;4.10;;;;;;;;;;5047724;28;20017;-84
2022/12/13 08:28:31;;;;;;;12.38;6.38;;;;;;;;;;5041727;28;20017;-82
2022/12/13 08:31:13;;;;;;;9.15;5.70;;;;;;;;;;5038321;28;20036;-81
2022/12/13 08:33:39;;;;;;;3.30;3.05;;;;;;;;;;5051582;28;20031;-81
2022/12/13 08:36:15;;;;;;;3.05;2.70;;;;;;;;;;5024177;28;20026;-82
2022/12/13 08:38:41;;;;;;;5.72;3.92;;;;;;;;;;5033533;28;20033;-82
2022/12/13 08:41:07;;;;;;;11.00;4.63;;;;;;;;;;5029328;28;20029;-80
2022/12/13 08:43:33;;;;;;;8.80;3.38;;;;;;;;;;5037700;28;20025;-80
2022/12/13 08:45:58;;;;;;;7.00;4.72;;;;;;;;;;5037312;28;20037;-80
2022/12/13 08:48:24;;;;;;;6.88;3.95;;;;;;;;;;5037283;28;20032;-80
2022/12/13 08:50:49;;;;;;;5.50;3.78;;;;;;;;;;5038114;28;20083;-80
2022/12/13 08:53:14;;;;;;;9.00;4.45;;;;;;;;;;5037494;28;20083;-80
2022/12/13 08:55:40;;;;;;;8.07;5.18;;;;;;;;;;5037946;28;20029;-80
2022/12/13 08:58:08;;;;;;;8.20;4.80;;;;;;;;;;5037896;28;20113;-80
2022/12/13 09:00:35;;;;;;;11.43;5.72;;;;;;;;;;5037859;28;20021;-81
2022/12/13 09:03:02;;;;;;;4.40;4.00;;;;;;;;;;5037080;28;20124;-81
2022/12/13 09:05:27;;;;;;;5.35;4.05;;;;;;;;;;5037985;28;20017;-80
2022/12/13 09:07:57;;;;;;;10.23;5.43;;;;;;;;;;5037302;28;20569;-80
2022/12/13 09:10:22;;;;;;;8.02;5.13;;;;;;;;;;5037041;28;20035;-80
2022/12/13 09:12:48;;;;;;;5.70;5.15;;;;;;;;;;5027302;28;20685;-81
2022/12/13 09:15:13;;;;;;;4.00;3.67;;;;;;;;;;5017577;28;20347;-81
2022/12/13 09:17:39;;;;;;;4.53;4.13;;;;;;;;;;5016609;28;20485;-82
2022/12/13 09:20:10;;;;;;;9.40;5.72;;;;;;;;;;5017218;28;20356;-81
2022/12/13 09:22:36;;;;;;;5.47;3.60;;;;;;;;;;5035276;28;20033;-81
2022/12/13 09:25:02;;;;;;;9.27;4.60;;;;;;;;;;5039576;28;20051;-82
2022/12/13 09:27:29;;;;;;;9.65;5.13;;;;;;;;;;5042454;28;20045;-80
2022/12/13 09:29:54;;;;;;;4.88;3.50;;;;;;;;;;5050402;28;20060;-83
2022/12/13 09:32:19;;;;;;;5.50;4.10;;;;;;;;;;5033423;28;20021;-80
2022/12/13 09:34:46;;;;;;;5.75;3.28;;;;;;;;;;5037237;28;20040;-80
2022/12/13 09:37:12;;;;;;;7.57;3.80;;;;;;;;;;5034822;28;20033;-79
2022/12/13 09:39:38;;;;;;;8.95;4.78;;;;;;;;;;5038413;28;20045;-80
2022/12/13 09:42:08;;;;;;;10.95;5.18;;;;;;;;;;5037878;28;20032;-80
2022/12/13 09:44:40;;;;;;;3.05;2.78;;;;;;;;;;5038090;28;20396;-79
2022/12/13 09:47:12;;;;;;;6.88;3.80;;;;;;;;;;5021188;28;20036;-84
2022/12/13 09:49:40;;;;;;;13.88;3.20;;;;;;;;;;5028191;28;20116;-83
2022/12/13 09:52:11;;;;;;;10.32;4.35;;;;;;;;;;5039193;28;20034;-84
2022/12/13 09:54:38;;;;;;;3.63;2.58;;;;;;;;;;5029254;28;20025;-83
2022/12/13 09:57:03;;;;;;;8.70;5.72;;;;;;;;;;5028170;28;20068;-83
2022/12/13 09:59:34;;;;;;;6.05;4.97;;;;;;;;;;5034985;28;20487;-85
2022/12/13 10:02:14;;;;;;;10.68;3.50;;;;;;;;;;5036430;28;20426;-82
2022/12/13 10:04:40;;;;;;;5.22;3.60;;;;;;;;;;5035011;28;20455;-81
2022/12/13 10:07:22;;;;;;;11.32;5.18;;;;;;;;;;5038503;28;20060;-85
2022/12/13 10:09:49;;;;;;;4.60;3.53;;;;;;;;;;5050246;28;20025;-82
2022/12/13 10:12:15;;;;;;;8.35;3.50;;;;;;;;;;5035579;28;20029;-83
2022/12/13 10:14:56;;;;;;;2.78;2.22;;;;;;;;;;5038477;28;20089;-83
2022/12/13 10:17:25;;;;;;;8.85;3.75;;;;;;;;;;5033840;28;20057;-83
2022/12/13 10:19:51;;;;;;;7.57;4.18;;;;;;;;;;5036740;28;20056;-83
2022/12/13 10:22:19;;;;;;;4.22;3.25;;;;;;;;;;5025894;28;20021;-81
2022/12/13 10:24:49;;;;;;;3.97;2.97;;;;;;;;;;5030757;28;20184;-83
2022/12/13 10:27:26;;;;;;;4.50;3.28;;;;;;;;;;5033829;28;20033;-82
2022/12/13 10:30:07;;;;;;;14.15;4.28;;;;;;;;;;5031089;28;20032;-85
2022/12/13 10:32:53;;;;;;;2.25;1.75;;;;;;;;;;5035347;28;20060;-84
2022/12/13 10:35:29;;;;;;;7.53;4.35;;;;;;;;;;5035327;28;20021;-81
2022/12/13 10:37:56;;;;;;;11.65;2.92;;;;;;;;;;5025536;28;20044;-82
2022/12/13 10:40:37;;;;;;;5.25;4.13;;;;;;;;;;5016828;28;20244;-82
2022/12/13 10:43:13;;;;;;;3.28;2.97;;;;;;;;;;5015418;28;20036;-81
2022/12/13 10:45:39;;;;;;;3.90;3.42;;;;;;;;;;5018543;28;20429;-81
2022/12/13 10:48:17;;;;;;;6.82;5.13;;;;;;;;;;5017339;28;20025;-81
2022/12/13 10:50:54;;;;;;;4.68;3.55;;;;;;;;;;5015989;28;20030;-82
2022/12/13 10:53:20;;;;;;;4.22;2.90;;;;;;;;;;5024546;28;20029;-82
2022/12/13 10:55:54;;;;;;;3.70;3.30;;;;;;;;;;5037144;28;20029;-82
2022/12/13 10:58:19;;;;;;;2.30;2.00;;;;;;;;;;5037000;28;20037;-81
2022/12/13 11:00:46;;;;;;;4.90;3.75;;;;;;;;;;5035665;28;20029;-81
2022/12/13 11:03:28;;;;;;;6.07;4.03;;;;;;;;;;5032887;28;20029;-81
2022/12/13 11:06:13;;;;;;;7.65;3.30;;;;;;;;;;5034380;28;20128;-80
2022/12/13 11:08:38;;;;;;;6.50;4.28;;;;;;;;;;5034571;28;20021;-79
2022/12/13 11:11:06;;;;;;;9.00;5.32;;;;;;;;;;5033667;28;20031;-80
2022/12/13 11:13:43;;;;;;;8.65;2.58;;;;;;;;;;5041559;28;20025;-79
2022/12/13 11:16:36;;;;;;;4.93;3.47;;;;;;;;;;5027044;28;20047;-82
2022/12/13 11:19:06;;;;;;;4.90;4.32;;;;;;;;;;5045538;28;20029;-84
2022/12/13 11:21:35;;;;;;;9.02;3.60;;;;;;;;;;5037771;28;20099;-84
2022/12/13 11:24:05;;;;;;;8.23;3.70;;;;;;;;;;5032449;28;20514;-81
2022/12/13 11:26:34;;;;;;;7.22;3.97;;;;;;;;;;5028252;28;20071;-82
2022/12/13 11:29:24;;;;;;;8.95;3.83;;;;;;;;;;5038510;28;20151;-81
2022/12/13 11:32:14;;;;;;;8.55;3.08;;;;;;;;;;5045905;28;20021;-81
2022/12/13 11:35:08;;;;;;;3.45;2.67;;;;;;;;;;5039009;28;20379;-84
2022/12/13 11:37:52;;;;;;;5.80;4.05;;;;;;;;;;5027160;28;20034;-82
2022/12/13 11:40:25;;;;;;;5.25;3.58;;;;;;;;;;5020985;28;20160;-82
2022/12/13 11:43:13;;;;;;;5.53;3.50;;;;;;;;;;5032295;28;20542;-82
2022/12/13 11:45:46;;;;;;;4.25;2.40;;;;;;;;;;5033959;28;20018;-83
2022/12/13 11:48:27;;;;;;;10.60;3.47;;;;;;;;;;5023543;28;20156;-81
2022/12/13 11:50:55;;;;;;;4.30;3.03;;;;;;;;;;5025846;28;20060;-82
2022/12/13 11:53:29;;;;;;;11.35;4.93;;;;;;;;;;5034187;28;20021;-82
2022/12/13 11:55:57;;;;;;;10.93;3.17;;;;;;;;;;5036987;28;20040;-83
2022/12/13 11:58:34;;;;;;;9.23;3.95;;;;;;;;;;5037608;28;20022;-80
2022/12/13 12:01:11;;;;;;;7.38;4.75;;;;;;;;;;5037639;28;20075;-81
2022/12/13 12:03:43;;;;;;;5.78;3.95;;;;;;;;;;5040118;28;20126;-81
2022/12/13 12:06:13;;;;;;;6.35;4.25;;;;;;;;;;5036231;28;20089;-84
2022/12/13 12:08:51;;;;;;;7.20;4.20;;;;;;;;;;5032391;28;20037;-83
2022/12/13 12:11:29;;;;;;;8.82;4.00;;;;;;;;;;5038033;28;20059;-84
2022/12/13 12:14:08;;;;;;;3.70;3.00;;;;;;;;;;5036992;28;20026;-83
2022/12/13 12:16:57;;;;;;;7.15;4.70;;;;;;;;;;5037584;28;20079;-81
2022/12/13 12:19:33;;;;;;;6.85;3.30;;;;;;;;;;5038883;28;20044;-81
2022/12/13 12:22:06;;;;;;;5.15;3.45;;;;;;;;;;5032297;28;20036;-80
2022/12/13 12:24:31;;;;;;;6.70;3.78;;;;;;;;;;5018489;28;20030;-81
2022/12/13 12:27:02;;;;;;;5.75;3.45;;;;;;;;;;5018610;28;20113;-83
2022/12/13 12:30:06;;;;;;;8.88;4.88;;;;;;;;;;5017650;28;20037;-81
2022/12/13 12:32:42;;;;;;;5.70;4.45;;;;;;;;;;5017023;28;20041;-81
2022/12/13 12:35:39;;;;;;;4.20;3.20;;;;;;;;;;5025236;28;20044;-81
2022/12/13 12:38:14;;;;;;;3.88;3.10;;;;;;;;;;5032511;28;20106;-83
2022/12/13 12:40:58;;;;;;;8.50;4.55;;;;;;;;;;5033799;28;20429;-79
2022/12/13 12:43:31;;;;;;;8.63;3.95;;;;;;;;;;5035809;28;20024;-84
2022/12/13 12:45:56;;;;;;;13.23;3.50;;;;;;;;;;5029877;28;20034;-80
2022/12/13 12:48:33;;;;;;;6.22;3.70;;;;;;;;;;5033556;28;20044;-83
2022/12/13 12:51:08;;;;;;;9.93;4.43;;;;;;;;;;5036950;28;20044;-85
2022/12/13 12:53:53;;;;;;;11.70;3.30;;;;;;;;;;5038164;28;20037;-82
2022/12/13 12:56:46;;;;;;;11.43;3.88;;;;;;;;;;5026067;28;20028;-84
2022/12/13 12:59:33;;;;;;;7.38;4.95;;;;;;;;;;5028046;28;20045;-80
2022/12/13 13:02:14;;;;;;;5.25;3.92;;;;;;;;;;5038844;28;20022;-84
2022/12/13 13:04:47;;;;;;;5.17;3.13;;;;;;;;;;5028348;28;20053;-83
2022/12/13 13:07:17;;;;;;;5.63;3.75;;;;;;;;;;5038866;28;20025;-82
2022/12/13 13:09:43;;;;;;;6.38;3.90;;;;;;;;;;5027336;28;20059;-81
2022/12/13 13:12:10;;;;;;;4.68;3.63;;;;;;;;;;5017413;28;20041;-81
2022/12/13 13:14:37;;;;;;;17.65;5.47;;;;;;;;;;5028738;28;20048;-83
2022/12/13 13:17:15;;;;;;;4.25;3.05;;;;;;;;;;5019212;28;20113;-81
2022/12/13 13:19:45;;;;;;;4.90;3.65;;;;;;;;;;5023204;28;20052;-82
2022/12/13 13:22:31;;;;;;;9.75;5.15;;;;;;;;;;5028435;28;20040;-82
2022/12/13 13:25:36;;;;;;;13.30;3.42;;;;;;;;;;5025239;28;20033;-80
2022/12/13 13:28:14;;;;;;;9.20;3.28;;;;;;;;;;5022980;28;20518;-82
2022/12/13 13:31:04;;;;;;;6.43;3.90;;;;;;;;;;5041470;28;20033;-84
2022/12/13 13:33:47;;;;;;;5.60;4.07;;;;;;;;;;5036729;28;20037;-82
2022/12/13 13:36:43;;;;;;;5.25;3.92;;;;;;;;;;5030317;28;20030;-82
2022/12/13 13:39:57;;;;;;;6.40;4.30;;;;;;;;;;5043401;28;20783;-85
2022/12/13 13:42:24;;;;;;;5.22;3.00;;;;;;;;;;5023201;28;20039;-83
2022/12/13 13:44:52;;;;;;;5.70;3.85;;;;;;;;;;5026136;28;20099;-82
2022/12/13 13:47:23;;;;;;;10.43;5.97;;;;;;;;;;5028813;28;20053;-83
2022/12/13 13:52:29;;;;;;;7.63;4.63;;;;;;;;;;5033323;28;20371;-84
2022/12/13 13:55:09;;;;;;;7.35;3.38;;;;;;;;;;5035641;28;20029;-83
2022/12/13 13:57:52;;;;;;;7.85;4.60;;;;;;;;;;5034221;28;20082;-84
2022/12/13 14:00:19;;;;;;;8.48;3.60;;;;;;;;;;5030916;28;20435;-82
2022/12/13 14:03:03;;;;;;;10.38;4.90;;;;;;;;;;5043264;28;20040;-85
2022/12/13 14:06:00;;;;;;;8.90;5.55;;;;;;;;;;5040044;28;20036;-85
2022/12/13 14:08:46;;;;;;;8.35;4.85;;;;;;;;;;5039567;28;20033;-86
2022/12/13 14:11:49;;;;;;;12.25;4.70;;;;;;;;;;5036120;28;20026;-84
2022/12/13 14:14:26;;;;;;;;;;;;;;;;;;5034413;28;20025;-83
2022/12/13 14:17:31;;;;;;;6.50;3.38;;;;;;;;;;5033823;28;19908;-82
2022/12/13 14:20:23;;;;;;;5.75;3.58;;;;;;;;;;5037593;28;20048;-83
2022/12/13 14:22:52;;;;;;;;;;;;;;;;;;5053137;28;20036;-83
2022/12/13 14:25:45;;;;;;;6.35;4.15;;;;;;;;;;5056668;28;20441;-83
2022/12/13 14:28:28;;;;;;;10.18;4.00;;;;;;;;;;5056012;28;20029;-83
2022/12/13 14:30:53;;;;;;;7.32;4.20;;;;;;;;;;5053200;28;20032;-83
2022/12/13 14:33:21;;;;;;;7.38;4.57;;;;;;;;;;5066832;28;20032;-84
2022/12/13 14:35:56;;;;;;;7.28;4.43;;;;;;;;;;5076312;28;20099;-84
2022/12/13 14:38:24;;;;;;;5.68;3.83;;;;;;;;;;5055563;28;20025;-84
2022/12/13 14:40:56;;;;;;;9.13;4.05;;;;;;;;;;5055262;28;20025;-83
2022/12/13 14:43:30;;;;;;;8.85;4.13;;;;;;;;;;5055701;28;20025;-84
2022/12/13 14:46:01;;;;;;;6.70;3.63;;;;;;;;;;5053513;28;20051;-84
2022/12/13 14:48:31;;;;;;;8.27;5.43;;;;;;;;;;5067322;28;20033;-85
2022/12/13 14:50:56;;;;;;;7.43;4.30;;;;;;;;;;5052234;28;20032;-85
2022/12/13 14:53:29;;;;;;;11.23;4.93;;;;;;;;;;5046078;28;20025;-84
2022/12/13 14:56:22;;;;;;;7.63;5.10;;;;;;;;;;5033930;28;20032;-85
2022/12/13 14:58:53;;;;;;;10.38;5.45;;;;;;;;;;5016016;28;20041;-86
2022/12/13 15:01:37;;;;;;;8.77;4.57;;;;;;;;;;5012704;28;20025;-84
2022/12/13 15:04:22;;;;;;;7.10;4.63;;;;;;;;;;5041895;28;20030;-85
2022/12/13 15:06:54;;;;;;;6.20;4.13;;;;;;;;;;5026905;28;20033;-85
2022/12/13 15:09:19;;;;;;;;;;;;;;;;;;5039313;28;20446;-83
2022/12/13 15:11:45;;;;;;;10.07;3.97;;;;;;;;;;5036296;28;20413;-82